createdAt,value
2023-05-08T00:00:12.796Z,40.39
2023-05-08T00:05:11.784Z,40.51
2023-05-08T00:10:11.466Z,40.27
2023-05-08T00:15:12.818Z,40.28
2023-05-08T00:20:12.863Z,40.06
2023-05-08T00:25:11.752Z,40.03
2023-05-08T00:30:13.276Z,40.00
2023-05-08T00:35:12.785Z,39.55
2023-05-08T00:40:12.824Z,39.38
2023-05-08T00:45:13.368Z,39.40
2023-05-08T00:50:13.084Z,39.20
2023-05-08T00:55:12.117Z,39.46
2023-05-08T01:00:13.460Z,38.90
2023-05-08T01:05:13.155Z,39.04
2023-05-08T01:10:12.437Z,39.56
2023-05-08T01:15:16.988Z,39.34
2023-05-08T01:20:27.373Z,39.00
2023-05-08T01:25:54.442Z,39.73
2023-05-08T01:31:13.539Z,39.70
2023-05-08T01:36:21.879Z,39.62
2023-05-08T01:41:28.794Z,39.73
2023-05-08T01:46:29.572Z,39.58
2023-05-08T01:51:33.472Z,39.68
2023-05-08T01:56:32.961Z,39.31
2023-05-08T02:01:35.340Z,39.08
2023-05-08T02:06:37.294Z,39.43
2023-05-08T02:11:37.970Z,39.15
2023-05-08T02:16:38.854Z,39.99
2023-05-08T02:21:41.803Z,40.81
2023-05-08T02:26:42.622Z,40.96
2023-05-08T02:31:42.818Z,41.79
2023-05-08T02:36:44.381Z,41.94
2023-05-08T02:41:44.451Z,42.50
2023-05-08T02:46:50.582Z,42.90
2023-05-08T02:51:57.080Z,41.59
2023-05-08T02:57:01.802Z,40.66
2023-05-08T03:02:08.083Z,40.47
2023-05-08T03:07:09.413Z,39.83
2023-05-08T03:12:14.356Z,39.63
2023-05-08T03:17:17.461Z,39.43
2023-05-08T03:22:20.434Z,39.83
2023-05-08T03:27:20.519Z,39.37
2023-05-08T03:32:21.309Z,39.79
2023-05-08T03:37:22.585Z,39.42
2023-05-08T03:42:22.394Z,39.81
2023-05-08T03:47:22.556Z,39.86
2023-05-08T03:52:23.386Z,40.06
2023-05-08T03:57:22.801Z,40.50
2023-05-08T04:02:29.965Z,41.31
2023-05-08T04:07:38.021Z,41.22
2023-05-08T04:12:46.451Z,41.44
2023-05-08T04:17:51.398Z,41.89
2023-05-08T04:22:54.944Z,42.03
2023-05-08T04:27:57.707Z,41.98
2023-05-08T04:32:58.089Z,41.77
2023-05-08T04:38:00.210Z,41.48
2023-05-08T04:42:59.396Z,41.07
2023-05-08T04:47:59.051Z,41.08
2023-05-08T04:52:59.299Z,41.26
2023-05-08T04:57:58.258Z,40.82
2023-05-08T05:02:57.293Z,40.76
2023-05-08T05:07:56.203Z,40.55
2023-05-08T05:12:56.428Z,40.61
2023-05-08T05:17:58.253Z,40.54
2023-05-08T05:22:57.805Z,40.50
2023-05-08T05:27:58.907Z,40.71
2023-05-08T05:32:58.485Z,40.34
2023-05-08T05:37:57.399Z,40.75
2023-05-08T05:42:56.350Z,39.95
2023-05-08T05:47:56.399Z,39.80
2023-05-08T05:52:57.850Z,39.40
2023-05-08T05:57:57.885Z,38.70
2023-05-08T06:02:59.077Z,38.57
2023-05-08T06:07:58.268Z,38.28
2023-05-08T06:12:57.179Z,37.81
2023-05-08T06:17:56.561Z,38.29
2023-05-08T06:22:56.730Z,37.86
2023-05-08T06:27:55.380Z,38.26
2023-05-08T06:32:54.218Z,37.96
2023-05-08T06:37:53.046Z,37.57
2023-05-08T06:42:53.109Z,37.17
2023-05-08T06:47:51.814Z,36.56
2023-05-08T06:52:50.478Z,36.70
2023-05-08T06:57:49.168Z,36.56
2023-05-08T07:02:49.297Z,36.78
2023-05-08T07:07:48.024Z,36.91
2023-05-08T07:12:46.837Z,37.22
2023-05-08T07:17:45.850Z,37.12
2023-05-08T07:22:46.554Z,37.36
2023-05-08T07:27:45.240Z,36.92
2023-05-08T07:32:44.054Z,36.40
2023-05-08T07:37:42.889Z,36.56
2023-05-08T07:42:44.369Z,36.65
2023-05-08T07:47:50.939Z,37.60
2023-05-08T07:52:50.590Z,37.50
2023-05-08T07:57:50.806Z,37.02
2023-05-08T08:02:51.449Z,36.99
2023-05-08T08:07:50.546Z,37.14
2023-05-08T08:12:50.695Z,36.81
2023-05-08T08:17:49.611Z,36.48
2023-05-08T08:22:48.542Z,35.73
2023-05-08T08:27:49.801Z,35.07
2023-05-08T08:32:50.207Z,35.40
2023-05-08T08:37:48.954Z,35.60
2023-05-08T08:42:47.773Z,35.28
2023-05-08T08:47:47.051Z,34.64
2023-05-08T08:52:56.947Z,35.02
2023-05-08T08:58:04.478Z,34.85
2023-05-08T09:03:03.616Z,35.02
2023-05-08T09:08:05.803Z,35.19
2023-05-08T09:13:05.003Z,35.62
2023-05-08T09:18:04.001Z,35.90
2023-05-08T09:23:04.295Z,35.63
2023-05-08T09:28:16.791Z,36.34
2023-05-08T09:33:15.658Z,38.06
2023-05-08T09:43:37.170Z,39.01
2023-05-08T09:48:38.951Z,39.14
2023-05-08T09:53:38.004Z,40.09
2023-05-08T09:58:41.745Z,39.91
2023-05-08T10:03:50.361Z,39.75
2023-05-08T10:08:49.711Z,40.56
2023-05-08T10:13:49.758Z,40.69
2023-05-08T10:18:50.516Z,40.75
2023-05-08T10:23:52.299Z,39.45
2023-05-08T10:28:57.536Z,39.53
2023-05-08T10:33:57.403Z,39.98
2023-05-08T10:38:58.715Z,40.77
2023-05-08T10:44:02.560Z,42.90
2023-05-08T10:49:14.134Z,43.56
2023-05-08T10:54:21.822Z,45.60
2023-05-08T10:59:23.014Z,46.16
2023-05-08T11:04:22.664Z,47.63
2023-05-08T11:09:23.244Z,47.27
2023-05-08T11:14:25.419Z,47.97
2023-05-08T11:19:26.257Z,48.63
2023-05-08T11:24:36.030Z,47.37
2023-05-08T11:29:36.319Z,48.65
2023-05-08T11:34:48.972Z,48.53
2023-05-08T11:39:47.935Z,51.10
2023-05-08T11:44:48.098Z,53.79
2023-05-08T11:49:46.892Z,55.77
2023-05-08T11:54:45.683Z,57.31
2023-05-08T11:59:44.965Z,59.97
2023-05-08T12:04:48.460Z,61.85
2023-05-08T12:09:48.061Z,63.44
2023-05-08T12:14:51.010Z,63.70
2023-05-08T12:19:56.584Z,65.18
2023-05-08T12:24:55.326Z,65.79
2023-05-08T12:29:54.175Z,68.19
2023-05-08T12:34:54.470Z,69.69
2023-05-08T12:39:53.136Z,72.54
2023-05-08T12:44:52.648Z,73.75
2023-05-08T12:49:52.778Z,73.00
2023-05-08T12:54:52.912Z,75.77
2023-05-08T12:59:51.778Z,76.91
2023-05-08T13:04:56.069Z,77.39
2023-05-08T13:10:00.260Z,79.57
2023-05-08T13:14:59.185Z,81.51
2023-05-08T13:19:57.931Z,81.25
2023-05-08T13:24:56.686Z,83.29
2023-05-08T13:29:56.830Z,83.68
2023-05-08T13:34:58.799Z,84.15
2023-05-08T13:39:59.620Z,84.19
2023-05-08T13:44:59.858Z,86.77
2023-05-08T13:49:58.666Z,87.19
2023-05-08T13:54:58.137Z,87.59
2023-05-08T13:59:56.943Z,86.46
2023-05-08T14:04:57.696Z,86.72
2023-05-08T14:09:56.547Z,86.28
2023-05-08T14:14:55.271Z,87.17
2023-05-08T14:19:59.866Z,87.89
2023-05-08T14:24:58.650Z,88.24
2023-05-08T14:29:57.970Z,87.76
2023-05-08T14:34:58.297Z,87.13
2023-05-08T14:39:58.721Z,88.31
2023-05-08T14:44:57.545Z,88.30
2023-05-08T14:49:56.368Z,88.75
2023-05-08T14:54:56.682Z,88.50
2023-05-08T14:59:56.918Z,88.64
2023-05-08T15:04:55.799Z,88.60
2023-05-08T15:09:54.517Z,87.80
2023-05-08T15:14:54.753Z,88.17
2023-05-08T15:19:53.558Z,86.21
2023-05-08T15:24:52.415Z,86.97
2023-05-08T15:29:51.819Z,86.06
2023-05-08T15:34:52.000Z,85.43
2023-05-08T15:39:50.945Z,85.31
2023-05-08T15:44:54.632Z,86.44
2023-05-08T15:49:55.515Z,86.52
2023-05-08T15:54:54.262Z,86.35
2023-05-08T15:59:52.970Z,86.96
2023-05-08T16:04:51.803Z,89.21
2023-05-08T16:09:52.007Z,88.20
2023-05-08T16:14:50.716Z,85.70
2023-05-08T16:19:49.486Z,85.64
2023-05-08T16:24:48.165Z,84.72
2023-05-08T16:29:48.421Z,84.46
2023-05-08T16:34:47.092Z,86.64
2023-05-08T16:39:45.823Z,85.94
2023-05-08T16:44:44.464Z,86.17
2023-05-08T16:49:45.085Z,85.60
2023-05-08T16:54:43.995Z,85.03
2023-05-08T16:59:42.673Z,85.78
2023-05-08T17:04:41.836Z,85.77
2023-05-08T17:09:42.328Z,85.81
2023-05-08T17:14:42.720Z,85.94
2023-05-08T17:19:43.170Z,86.89
2023-05-08T17:24:43.461Z,86.75
2023-05-08T17:29:42.198Z,87.29
2023-05-08T17:34:41.057Z,86.48
2023-05-08T17:39:39.858Z,84.99
2023-05-08T17:44:40.027Z,84.88
2023-05-08T17:49:38.975Z,85.05
2023-05-08T17:54:37.806Z,84.35
2023-05-08T17:59:36.540Z,83.92
2023-05-08T18:04:36.646Z,86.51
2023-05-08T18:09:35.461Z,86.62
2023-05-08T18:14:34.851Z,86.42
2023-05-08T18:19:34.120Z,85.58
2023-05-08T18:24:34.200Z,85.10
2023-05-08T18:29:32.967Z,86.76
2023-05-08T18:34:33.001Z,86.71
2023-05-08T18:39:33.127Z,86.80
2023-05-08T18:44:31.993Z,85.51
2023-05-08T18:49:30.837Z,86.30
2023-05-08T18:54:30.078Z,86.48
2023-05-08T18:59:30.276Z,84.98
2023-05-08T19:04:29.051Z,84.95
2023-05-08T19:09:27.840Z,83.79
2023-05-08T19:14:26.622Z,83.61
2023-05-08T19:19:27.684Z,83.80
2023-05-08T19:24:29.885Z,84.24
2023-05-08T19:29:28.770Z,83.75
2023-05-08T19:34:29.136Z,83.47
2023-05-08T19:39:28.230Z,83.25
2023-05-08T19:44:28.160Z,82.14
2023-05-08T19:49:28.815Z,82.38
2023-05-08T19:54:27.596Z,82.42
2023-05-08T19:59:26.503Z,82.87
2023-05-08T20:04:25.427Z,83.10
2023-05-08T20:09:25.670Z,84.37
2023-05-08T20:14:24.518Z,87.49
2023-05-08T20:19:23.360Z,87.83
2023-05-08T20:24:23.392Z,89.00
2023-05-08T20:29:24.331Z,89.39
2023-05-08T20:34:23.121Z,90.27
2023-05-08T20:39:21.922Z,92.25
2023-05-08T20:44:20.610Z,91.35
2023-05-08T20:49:20.764Z,93.66
2023-05-08T20:54:19.443Z,92.79
2023-05-08T20:59:18.870Z,91.96
2023-05-08T21:04:20.474Z,92.62
2023-05-08T21:09:19.641Z,92.85
2023-05-08T21:14:18.405Z,91.71
2023-05-08T21:19:17.766Z,92.87
2023-05-08T21:24:17.919Z,90.47
2023-05-08T21:29:16.767Z,91.79
2023-05-08T21:34:16.512Z,90.33
2023-05-08T21:39:15.235Z,90.29
2023-05-08T21:44:16.084Z,91.81
2023-05-08T21:49:15.494Z,92.63
2023-05-08T21:54:14.338Z,92.25
2023-05-08T21:59:13.095Z,92.36
2023-05-08T22:04:13.154Z,92.75
2023-05-08T22:09:11.838Z,93.62
2023-05-08T22:14:10.560Z,92.61
2023-05-08T22:19:11.475Z,93.01
2023-05-08T22:24:11.589Z,91.13
2023-05-08T22:29:10.284Z,91.36
2023-05-08T22:34:09.231Z,91.34
2023-05-08T22:39:10.153Z,91.34
2023-05-08T22:44:10.529Z,90.50
2023-05-08T22:49:10.349Z,91.46
2023-05-08T22:54:09.039Z,90.68
2023-05-08T22:59:07.970Z,90.91
2023-05-08T23:04:08.166Z,90.47
2023-05-08T23:09:06.936Z,91.67
2023-05-08T23:14:05.755Z,91.39
2023-05-08T23:19:04.682Z,91.29
2023-05-08T23:24:06.081Z,92.54
2023-05-08T23:29:04.793Z,91.64
2023-05-08T23:34:03.612Z,90.35
2023-05-08T23:39:02.297Z,90.28
2023-05-08T23:44:02.472Z,89.49
2023-05-08T23:49:01.173Z,89.72
2023-05-08T23:53:59.947Z,89.38
2023-05-08T23:58:58.765Z,90.00
